Time;durP1;ratioP1;P1;durP2;ratioP2;P2;SDS_P1;SDS_P2;PMS_P1;PMS_P2;Temp;Humidity;BMP_temperature;BMP_pressure;BME280_temperature;BME280_humidity;BME280_pressure;Samples;Min_cycle;Max_cycle;Signal;HPM_P1;HPM_P2
2021/05/19 00:00:30;;;;;;;1.13;1.00;;;13.00;39.50;;;;;;10398454;28;20226;-72
2021/05/19 00:05:32;;;;;;;3.13;0.90;;;13.00;39.30;;;;;;10399504;28;20233;-71
2021/05/19 00:10:37;;;;;;;0.80;0.80;;;13.00;39.30;;;;;;10401012;28;20309;-72
2021/05/19 00:15:40;;;;;;;1.50;1.30;;;13.10;39.60;;;;;;10399691;28;20268;-72
2021/05/19 00:20:43;;;;;;;1.83;1.20;;;13.10;39.40;;;;;;10409640;28;20256;-72
2021/05/19 00:25:46;;;;;;;1.20;1.10;;;13.10;39.30;;;;;;10390709;28;20753;-71
2021/05/19 00:30:52;;;;;;;1.80;1.20;;;13.10;39.40;;;;;;10391570;28;21292;-72
2021/05/19 00:35:55;;;;;;;1.00;1.00;;;13.20;39.40;;;;;;10397278;28;20363;-71
2021/05/19 00:40:59;;;;;;;2.13;1.30;;;13.10;39.20;;;;;;10392196;28;20254;-71
2021/05/19 00:46:01;;;;;;;1.00;0.90;;;13.20;39.40;;;;;;10382162;28;20304;-71
2021/05/19 00:51:05;;;;;;;1.07;1.07;;;13.20;39.30;;;;;;10384668;28;20317;-70
2021/05/19 00:56:08;;;;;;;1.20;1.10;;;13.20;39.30;;;;;;10386944;28;20218;-71
2021/05/19 01:01:11;;;;;;;2.57;1.00;;;13.10;39.50;;;;;;10379648;28;20309;-71
2021/05/19 01:06:19;;;;;;;1.30;1.10;;;13.10;39.40;;;;;;10392701;28;20225;-72
2021/05/19 01:11:23;;;;;;;2.13;1.00;;;13.10;39.50;;;;;;10383280;28;20241;-72
2021/05/19 01:16:26;;;;;;;2.03;1.27;;;13.10;39.70;;;;;;10389143;28;20234;-71
2021/05/19 01:21:29;;;;;;;1.37;0.90;;;13.10;39.50;;;;;;10384985;28;20254;-71
2021/05/19 01:26:33;;;;;;;1.00;0.90;;;13.10;39.60;;;;;;10385865;28;20241;-71
2021/05/19 01:31:36;;;;;;;4.20;1.10;;;13.10;39.70;;;;;;10384549;28;20649;-71
2021/05/19 01:36:39;;;;;;;1.00;0.90;;;13.10;39.50;;;;;;10383803;28;20224;-71
2021/05/19 01:41:42;;;;;;;1.83;1.00;;;13.00;39.50;;;;;;10381709;28;20312;-71
2021/05/19 01:46:46;;;;;;;3.33;1.10;;;13.00;39.80;;;;;;10391485;28;20257;-71
2021/05/19 01:51:50;;;;;;;1.90;1.20;;;13.00;39.80;;;;;;10378848;28;21049;-71
2021/05/19 01:56:54;;;;;;;1.40;1.20;;;12.90;39.80;;;;;;10382108;28;20309;-72
2021/05/19 02:01:57;;;;;;;1.43;1.20;;;13.00;40.00;;;;;;10378223;28;20336;-71
2021/05/19 02:07:00;;;;;;;1.57;1.20;;;13.00;40.10;;;;;;10392413;28;20260;-71
2021/05/19 02:12:05;;;;;;;1.20;1.10;;;12.90;40.00;;;;;;10367370;28;20342;-71
2021/05/19 02:17:08;;;;;;;1.50;1.40;;;13.00;40.30;;;;;;10366512;28;20670;-71
2021/05/19 02:22:10;;;;;;;2.00;1.50;;;13.00;40.10;;;;;;10355037;28;20261;-72
2021/05/19 02:27:14;;;;;;;1.73;1.30;;;12.90;40.10;;;;;;10367543;28;20656;-71
2021/05/19 02:32:17;;;;;;;2.03;1.83;;;12.90;40.30;;;;;;10369490;28;20661;-71
2021/05/19 02:37:21;;;;;;;1.50;1.40;;;13.00;40.10;;;;;;10376575;28;20284;-71
2021/05/19 02:42:24;;;;;;;1.73;1.40;;;13.00;40.20;;;;;;10387959;28;20240;-70
2021/05/19 02:47:27;;;;;;;1.70;1.60;;;12.90;40.30;;;;;;10384127;28;20737;-71
2021/05/19 02:52:30;;;;;;;3.00;1.50;;;12.90;40.30;;;;;;10388214;28;20651;-71
2021/05/19 02:57:33;;;;;;;1.57;1.47;;;12.90;40.30;;;;;;10387873;28;20306;-72
2021/05/19 03:02:36;;;;;;;1.63;1.53;;;12.90;40.50;;;;;;10379442;28;20280;-71
2021/05/19 03:07:40;;;;;;;1.70;1.60;;;12.90;40.40;;;;;;10383321;28;20722;-72
2021/05/19 03:12:44;;;;;;;2.93;1.60;;;12.80;40.40;;;;;;10373462;28;20328;-71
2021/05/19 03:17:47;;;;;;;1.70;1.60;;;12.80;40.80;;;;;;10380116;28;20309;-71
2021/05/19 03:22:50;;;;;;;1.63;1.50;;;12.80;40.60;;;;;;10381758;28;20320;-71
2021/05/19 03:27:53;;;;;;;1.77;1.67;;;12.80;40.60;;;;;;10382152;28;20262;-71
2021/05/19 03:32:56;;;;;;;1.80;1.70;;;12.80;40.90;;;;;;10384407;28;20320;-71
2021/05/19 03:37:59;;;;;;;1.70;1.60;;;12.80;40.70;;;;;;10383736;28;20233;-71
2021/05/19 03:43:04;;;;;;;1.70;1.60;;;12.80;40.60;;;;;;10389427;28;20317;-72
2021/05/19 03:48:07;;;;;;;2.60;2.40;;;12.70;40.80;;;;;;10384926;28;20318;-72
2021/05/19 03:53:10;;;;;;;2.43;2.23;;;12.70;40.90;;;;;;10386450;28;20324;-72
2021/05/19 03:58:14;;;;;;;3.03;2.80;;;12.70;41.00;;;;;;10381475;28;20804;-72
2021/05/19 04:03:17;;;;;;;3.57;3.27;;;12.60;41.50;;;;;;10376431;28;20272;-71
2021/05/19 04:08:19;;;;;;;4.47;2.50;;;12.60;41.20;;;;;;10381659;28;20234;-72
2021/05/19 04:13:23;;;;;;;2.40;2.23;;;12.70;41.20;;;;;;10383720;28;20337;-72
2021/05/19 04:18:26;;;;;;;2.20;2.10;;;12.60;41.50;;;;;;10379045;28;20230;-72
2021/05/19 04:23:29;;;;;;;2.70;2.50;;;12.60;41.40;;;;;;10387907;28;20778;-72
2021/05/19 04:28:32;;;;;;;2.60;2.40;;;12.60;41.40;;;;;;10389950;28;20222;-72
2021/05/19 04:33:35;;;;;;;2.43;2.27;;;12.60;41.90;;;;;;10393333;28;20264;-72
2021/05/19 04:38:38;;;;;;;3.27;3.07;;;12.70;41.60;;;;;;10392718;28;20254;-72
2021/05/19 04:43:42;;;;;;;3.13;2.93;;;12.70;41.50;;;;;;10389240;28;20268;-72
2021/05/19 04:48:45;;;;;;;3.10;2.80;;;12.70;41.80;;;;;;10390208;28;20312;-72
2021/05/19 04:53:49;;;;;;;3.60;3.30;;;12.70;41.60;;;;;;10376627;28;20317;-71
2021/05/19 04:58:52;;;;;;;3.97;3.67;;;12.80;41.70;;;;;;10385897;28;20248;-71
2021/05/19 05:03:55;;;;;;;3.73;3.43;;;12.80;41.80;;;;;;10389703;28;20229;-71
2021/05/19 05:08:57;;;;;;;3.80;3.50;;;12.80;41.90;;;;;;10390232;28;20230;-72
2021/05/19 05:14:01;;;;;;;3.73;3.43;;;12.80;41.90;;;;;;10384855;28;20265;-72
2021/05/19 05:19:04;;;;;;;4.07;3.67;;;12.80;42.40;;;;;;10394302;28;20221;-72
2021/05/19 05:24:07;;;;;;;4.10;3.80;;;12.80;42.10;;;;;;10385189;28;20230;-72
2021/05/19 05:29:11;;;;;;;4.50;4.10;;;12.80;42.40;;;;;;10387684;28;20239;-71
2021/05/19 05:34:14;;;;;;;4.90;4.43;;;12.80;42.40;;;;;;10398897;28;20217;-71
2021/05/19 05:39:18;;;;;;;4.90;4.40;;;12.90;42.50;;;;;;10390700;28;20222;-72
2021/05/19 05:44:22;;;;;;;5.07;4.67;;;12.90;42.50;;;;;;10389309;28;20415;-72
2021/05/19 05:49:24;;;;;;;4.77;4.47;;;12.90;42.50;;;;;;10389852;28;20269;-72
2021/05/19 05:54:27;;;;;;;4.93;4.60;;;12.90;42.50;;;;;;10390040;28;20226;-71
2021/05/19 05:59:31;;;;;;;5.03;4.73;;;12.90;42.50;;;;;;10383170;28;20229;-72
2021/05/19 06:04:33;;;;;;;5.17;4.77;;;13.00;42.60;;;;;;10384554;28;20231;-72
2021/05/19 06:09:37;;;;;;;5.03;4.63;;;12.90;42.50;;;;;;10394734;28;20249;-72
2021/05/19 06:14:40;;;;;;;5.10;4.70;;;13.00;42.60;;;;;;10385492;28;20598;-72
2021/05/19 06:19:43;;;;;;;6.07;5.50;;;13.10;42.70;;;;;;10385105;28;20226;-75
2021/05/19 06:24:47;;;;;;;5.40;5.00;;;13.20;42.70;;;;;;10368003;28;20254;-72
2021/05/19 06:29:50;;;;;;;6.03;5.53;;;13.20;42.70;;;;;;10378185;28;20292;-72
2021/05/19 06:34:54;;;;;;;5.03;4.73;;;13.30;42.80;;;;;;10383102;28;20796;-72
2021/05/19 06:39:56;;;;;;;5.80;5.30;;;13.30;42.80;;;;;;10379666;28;20250;-72
2021/05/19 06:45:00;;;;;;;5.70;5.23;;;13.40;42.90;;;;;;10371322;28;20258;-72
2021/05/19 06:50:04;;;;;;;6.00;5.60;;;13.50;43.00;;;;;;10363609;28;20226;-72
2021/05/19 06:55:08;;;;;;;5.70;5.30;;;13.60;42.90;;;;;;10359144;28;20290;-72
2021/05/19 07:00:13;;;;;;;5.67;5.27;;;13.70;43.20;;;;;;10369040;28;20312;-72
2021/05/19 07:05:19;;;;;;;5.70;5.30;;;13.90;42.70;;;;;;10358153;28;20239;-72
2021/05/19 07:10:23;;;;;;;6.00;5.50;;;14.00;42.80;;;;;;10360393;28;20252;-72
2021/05/19 07:15:32;;;;;;;6.03;5.63;;;14.20;42.40;;;;;;10380536;28;20634;-72
2021/05/19 07:20:35;;;;;;;5.97;5.57;;;14.20;42.00;;;;;;10391057;28;20225;-72
2021/05/19 07:25:38;;;;;;;7.67;6.97;;;14.30;42.10;;;;;;10382780;28;20244;-73
2021/05/19 07:30:43;;;;;;;6.43;5.93;;;14.30;41.90;;;;;;10385478;28;20299;-72
2021/05/19 07:35:50;;;;;;;6.80;6.20;;;14.30;41.70;;;;;;10381471;28;20230;-73
2021/05/19 07:40:53;;;;;;;6.90;6.40;;;14.40;41.70;;;;;;10377165;28;20229;-72
2021/05/19 07:45:57;;;;;;;7.50;6.80;;;14.40;41.30;;;;;;10381591;28;20237;-73
2021/05/19 07:50:59;;;;;;;7.47;6.70;;;14.40;41.40;;;;;;10383289;28;20230;-72
2021/05/19 07:56:04;;;;;;;6.80;6.33;;;14.40;41.60;;;;;;10387594;28;20230;-72
2021/05/19 08:01:12;;;;;;;7.37;6.87;;;14.40;41.80;;;;;;10394797;28;20213;-72
2021/05/19 08:06:13;;;;;;;7.13;5.87;;;14.50;41.60;;;;;;10393261;28;20253;-72
2021/05/19 08:11:16;;;;;;;7.33;6.63;;;14.60;41.90;;;;;;10397241;28;20226;-72
2021/05/19 08:16:19;;;;;;;6.90;6.40;;;14.70;41.60;;;;;;10385636;28;20225;-72
2021/05/19 08:21:20;;;;;;;7.20;6.60;;;14.80;41.20;;;;;;10384134;28;20233;-72
2021/05/19 08:26:23;;;;;;;6.20;5.70;;;15.00;41.50;;;;;;10379898;28;20703;-72
2021/05/19 08:31:26;;;;;;;5.90;5.40;;;15.10;41.40;;;;;;10390099;28;20237;-72
2021/05/19 08:36:44;;;;;;;5.23;4.83;;;15.30;40.70;;;;;;10381141;28;20617;-72
2021/05/19 08:41:51;;;;;;;5.40;5.00;;;15.50;40.30;;;;;;10385619;28;20299;-72
2021/05/19 08:46:56;;;;;;;5.13;4.73;;;15.60;39.80;;;;;;10383356;28;20307;-72
2021/05/19 08:51:59;;;;;;;5.67;5.20;;;15.70;39.20;;;;;;10386450;28;20321;-73
2021/05/19 08:57:02;;;;;;;5.83;5.33;;;15.80;39.50;;;;;;10386485;28;20307;-73
2021/05/19 09:02:13;;;;;;;5.33;4.93;;;15.90;39.50;;;;;;10376337;28;20325;-72
2021/05/19 09:07:20;;;;;;;4.13;3.83;;;16.00;39.20;;;;;;10383949;28;20257;-72
2021/05/19 09:12:23;;;;;;;4.30;4.00;;;16.10;38.80;;;;;;10379539;28;20642;-72
2021/05/19 09:17:30;;;;;;;4.53;4.13;;;16.30;39.40;;;;;;10379781;28;20225;-70
2021/05/19 09:22:34;;;;;;;3.20;3.00;;;16.40;38.60;;;;;;10379770;28;20241;-70
2021/05/19 09:27:42;;;;;;;4.40;3.60;;;16.60;39.10;;;;;;10377686;28;20222;-70
2021/05/19 09:32:45;;;;;;;2.97;2.77;;;16.80;37.20;;;;;;10381446;28;20250;-70
2021/05/19 09:37:48;;;;;;;4.10;3.70;;;16.90;37.80;;;;;;10383040;28;20272;-72
2021/05/19 09:42:57;;;;;;;4.00;3.60;;;17.00;37.70;;;;;;10379324;28;20775;-72
2021/05/19 09:48:01;;;;;;;4.60;4.20;;;17.10;37.30;;;;;;10376278;28;20340;-72
2021/05/19 09:53:09;;;;;;;3.27;3.07;;;17.20;35.80;;;;;;10379653;28;20234;-73
2021/05/19 09:58:11;;;;;;;3.57;3.27;;;17.30;35.10;;;;;;10380873;28;20222;-72
2021/05/19 10:03:18;;;;;;;3.83;3.53;;;17.30;36.70;;;;;;10384771;28;20226;-72
2021/05/19 10:08:21;;;;;;;3.97;3.60;;;17.50;36.40;;;;;;10378652;28;20324;-72
2021/05/19 10:13:24;;;;;;;3.30;3.00;;;17.70;36.40;;;;;;10378438;28;20348;-72
2021/05/19 10:18:31;;;;;;;4.20;3.83;;;17.80;36.00;;;;;;10386883;28;20256;-72
2021/05/19 10:23:37;;;;;;;3.83;3.27;;;17.90;34.10;;;;;;10385681;28;20230;-72
2021/05/19 10:28:45;;;;;;;3.10;2.53;;;18.00;35.20;;;;;;10396230;28;20317;-71
2021/05/19 10:33:49;;;;;;;2.80;2.60;;;18.10;32.10;;;;;;10392145;28;20229;-73
2021/05/19 10:39:21;;;;;;;2.50;2.30;;;18.20;34.80;;;;;;10381269;28;20724;-73
2021/05/19 10:44:29;;;;;;;2.87;2.67;;;18.30;32.00;;;;;;10381160;28;20305;-72
2021/05/19 10:50:04;;;;;;;3.10;2.90;;;18.40;31.40;;;;;;10392327;28;20739;-72
2021/05/19 11:00:30;;;;;;;3.17;2.87;;;18.70;32.90;;;;;;10383343;28;20248;-72
2021/05/19 11:05:35;;;;;;;3.97;3.00;;;18.70;33.10;;;;;;10379161;28;20746;-72
2021/05/19 11:10:39;;;;;;;5.70;3.33;;;18.70;32.50;;;;;;10381873;28;20246;-72
2021/05/19 11:15:49;;;;;;;2.90;2.70;;;18.70;32.60;;;;;;10383179;28;20329;-71
2021/05/19 11:20:52;;;;;;;3.10;2.90;;;18.80;32.60;;;;;;10375431;28;20787;-72
2021/05/19 11:26:09;;;;;;;2.80;2.60;;;18.90;32.30;;;;;;10382256;28;20230;-72
2021/05/19 11:31:13;;;;;;;2.33;2.23;;;19.00;31.40;;;;;;10378261;28;20241;-72
2021/05/19 11:36:29;;;;;;;2.73;2.53;;;19.20;32.50;;;;;;10390744;28;20322;-72
2021/05/19 11:41:33;;;;;;;2.87;2.30;;;19.30;30.00;;;;;;10392637;28;20306;-72
2021/05/19 11:46:43;;;;;;;3.10;2.90;;;19.40;32.40;;;;;;10399527;28;20297;-72
2021/05/19 11:51:46;;;;;;;2.43;2.23;;;19.40;29.60;;;;;;10394498;28;20292;-72
2021/05/19 11:56:51;;;;;;;3.30;2.60;;;19.50;30.80;;;;;;10388043;28;20222;-71
2021/05/19 12:02:04;;;;;;;2.70;2.50;;;19.60;30.00;;;;;;10384309;28;20233;-72
2021/05/19 12:07:09;;;;;;;2.73;2.53;;;19.60;29.30;;;;;;10400606;28;20237;-72
2021/05/19 12:12:14;;;;;;;3.80;2.87;;;19.50;30.30;;;;;;10387056;28;20250;-71
2021/05/19 12:17:17;;;;;;;3.53;2.90;;;19.60;30.80;;;;;;10409108;28;20257;-72
2021/05/19 12:22:22;;;;;;;2.70;2.50;;;19.50;30.90;;;;;;10395667;28;20316;-72
2021/05/19 12:27:26;;;;;;;3.20;2.90;;;19.40;30.50;;;;;;10386685;28;20276;-72
2021/05/19 12:32:29;;;;;;;3.37;3.07;;;19.20;30.90;;;;;;10395494;28;20321;-72
2021/05/19 12:37:41;;;;;;;3.33;3.03;;;18.90;30.60;;;;;;10396161;28;20701;-72
2021/05/19 12:42:45;;;;;;;3.43;2.40;;;18.50;30.20;;;;;;10393543;28;20690;-72
2021/05/19 12:48:05;;;;;;;2.13;2.03;;;17.90;30.40;;;;;;10396470;28;20228;-72
2021/05/19 12:53:09;;;;;;;2.30;2.10;;;17.40;30.20;;;;;;10369146;28;20227;-72
2021/05/19 12:58:13;;;;;;;2.17;2.00;;;17.00;31.70;;;;;;10379339;28;20253;-72
2021/05/19 13:03:30;;;;;;;1.80;1.70;;;16.70;31.90;;;;;;10397076;28;20317;-72
2021/05/19 13:08:34;;;;;;;2.53;1.70;;;16.40;32.60;;;;;;10383872;28;20316;-72
2021/05/19 13:13:39;;;;;;;1.73;1.50;;;16.40;33.30;;;;;;10393869;28;20282;-71
2021/05/19 13:18:50;;;;;;;1.93;1.43;;;16.40;33.70;;;;;;10387219;28;20650;-72
2021/05/19 13:23:56;;;;;;;1.40;1.40;;;16.40;34.70;;;;;;10386285;28;20242;-71
2021/05/19 13:29:00;;;;;;;1.50;1.40;;;16.50;34.40;;;;;;10385005;28;20259;-71
2021/05/19 13:34:11;;;;;;;1.37;1.27;;;16.70;33.60;;;;;;10399520;28;20690;-71
2021/05/19 13:39:17;;;;;;;3.03;1.60;;;16.90;33.80;;;;;;10392346;28;20252;-71
2021/05/19 13:44:21;;;;;;;1.60;1.50;;;17.10;32.90;;;;;;10394840;28;20321;-72
2021/05/19 13:49:27;;;;;;;2.00;1.60;;;17.20;33.40;;;;;;10391838;28;20253;-72
2021/05/19 13:54:32;;;;;;;2.50;2.30;;;17.40;32.10;;;;;;10386521;28;20907;-72
2021/05/19 13:59:36;;;;;;;2.37;2.20;;;17.50;31.30;;;;;;10389422;28;20301;-72
2021/05/19 14:04:38;;;;;;;2.70;2.50;;;17.60;30.90;;;;;;10392171;28;20313;-72
2021/05/19 14:09:42;;;;;;;2.90;2.70;;;17.70;31.50;;;;;;10391258;28;20250;-72
2021/05/19 14:14:48;;;;;;;2.90;2.70;;;17.70;31.00;;;;;;10393718;28;20661;-72
2021/05/19 14:30:44;;;;;;;2.40;2.20;;;17.60;30.50;;;;;;10388790;28;20338;-74
2021/05/19 14:36:22;;;;;;;2.57;2.27;;;17.60;31.30;;;;;;10381665;28;20640;-71
2021/05/19 15:02:55;;;;;;;1.00;1.00;;;17.70;30.60;;;;;;10384086;28;20234;-72
2021/05/19 15:07:57;;;;;;;1.10;1.07;;;17.80;30.80;;;;;;10383156;28;20759;-72
2021/05/19 15:13:02;;;;;;;1.37;0.90;;;17.90;30.50;;;;;;10384148;28;20233;-71
2021/05/19 15:18:05;;;;;;;0.90;0.90;;;18.10;30.20;;;;;;10366264;28;20245;-72
2021/05/19 15:23:08;;;;;;;1.13;0.80;;;18.10;30.40;;;;;;10379885;28;20244;-71
2021/05/19 15:28:11;;;;;;;1.40;0.90;;;18.20;30.10;;;;;;10392974;28;20237;-71
2021/05/19 15:33:14;;;;;;;0.90;0.90;;;18.20;29.70;;;;;;10382708;28;20261;-71
2021/05/19 15:38:18;;;;;;;2.20;1.47;;;18.10;29.80;;;;;;10373522;28;20710;-71
2021/05/19 15:43:21;;;;;;;0.80;0.80;;;18.00;29.80;;;;;;10387839;28;23264;-71
2021/05/19 15:48:24;;;;;;;1.00;1.00;;;18.00;29.70;;;;;;10396299;28;20304;-71
2021/05/19 15:53:27;;;;;;;0.90;0.90;;;18.00;29.80;;;;;;10383172;28;20238;-71
2021/05/19 15:58:31;;;;;;;1.60;1.10;;;17.90;29.70;;;;;;10385166;28;20249;-71
2021/05/19 16:03:39;;;;;;;1.10;1.10;;;17.80;29.90;;;;;;10398173;28;20234;-71
2021/05/19 16:08:42;;;;;;;1.90;1.40;;;17.80;30.20;;;;;;10379697;28;20230;-73
2021/05/19 16:13:46;;;;;;;1.30;1.20;;;17.90;30.30;;;;;;10382786;28;20230;-72
2021/05/19 16:18:49;;;;;;;1.60;1.40;;;17.90;30.10;;;;;;10389589;28;20329;-70
2021/05/19 16:23:52;;;;;;;3.33;2.00;;;18.00;30.50;;;;;;10400824;28;20232;-71
2021/05/19 16:28:56;;;;;;;1.40;1.30;;;18.00;30.30;;;;;;10400525;28;20261;-71
2021/05/19 16:34:23;;;;;;;1.70;1.60;;;18.10;30.00;;;;;;10388650;28;20946;-69
2021/05/19 16:39:28;;;;;;;1.43;1.33;;;18.10;29.60;;;;;;10363905;28;20234;-70
2021/05/19 16:44:33;;;;;;;1.87;1.47;;;18.20;30.40;;;;;;10403237;28;20793;-70
2021/05/19 16:49:36;;;;;;;2.50;2.30;;;18.30;30.10;;;;;;10401272;28;20323;-72
2021/05/19 16:54:44;;;;;;;1.60;1.50;;;18.30;30.60;;;;;;10389627;28;20249;-72
2021/05/19 16:59:48;;;;;;;1.43;1.33;;;18.40;30.60;;;;;;10385889;28;20226;-72
2021/05/19 17:04:51;;;;;;;1.30;1.20;;;18.50;30.30;;;;;;10396266;28;20313;-72
2021/05/19 17:10:14;;;;;;;1.33;1.30;;;18.40;30.40;;;;;;10388526;28;20309;-72
2021/05/19 17:15:18;;;;;;;2.20;2.00;;;18.40;30.60;;;;;;10366363;28;20238;-72
2021/05/19 17:20:20;;;;;;;1.70;1.60;;;18.40;30.70;;;;;;10365772;28;20269;-71
2021/05/19 17:25:24;;;;;;;1.90;1.80;;;18.30;30.70;;;;;;10387915;28;20287;-72
2021/05/19 17:30:29;;;;;;;3.73;2.50;;;18.20;30.80;;;;;;10389238;28;20253;-71
2021/05/19 17:35:32;;;;;;;3.13;2.93;;;18.00;30.60;;;;;;10393156;28;20226;-72
2021/05/19 17:40:35;;;;;;;5.23;3.17;;;17.90;30.80;;;;;;10401332;28;20276;-71
2021/05/19 17:45:40;;;;;;;2.40;2.30;;;17.70;31.00;;;;;;10389288;28;20275;-72
2021/05/19 17:50:43;;;;;;;2.70;2.50;;;17.60;31.30;;;;;;10379509;28;20601;-71
2021/05/19 17:55:46;;;;;;;2.97;2.70;;;17.60;31.30;;;;;;10380253;28;20249;-72
2021/05/19 18:00:50;;;;;;;3.70;3.40;;;17.50;31.40;;;;;;10384046;28;20313;-72
2021/05/19 18:05:53;;;;;;;2.47;2.10;;;17.30;31.30;;;;;;10386034;28;20272;-72
2021/05/19 18:10:56;;;;;;;2.30;2.00;;;17.10;31.40;;;;;;10383225;28;20258;-72
2021/05/19 18:16:00;;;;;;;2.60;1.83;;;16.90;31.60;;;;;;10394542;28;20261;-72
2021/05/19 18:21:03;;;;;;;9.10;3.03;;;16.80;31.90;;;;;;10405306;28;20217;-72
2021/05/19 18:26:06;;;;;;;3.03;2.00;;;16.70;32.50;;;;;;10395220;28;20287;-72
2021/05/19 18:31:13;;;;;;;1.77;1.67;;;16.60;32.00;;;;;;10399748;28;20255;-72
2021/05/19 18:36:16;;;;;;;2.00;1.90;;;16.50;32.00;;;;;;10384302;28;20317;-72
2021/05/19 18:41:19;;;;;;;1.70;1.60;;;16.40;32.20;;;;;;10384459;28;20309;-71
2021/05/19 18:46:24;;;;;;;2.30;1.63;;;16.30;32.50;;;;;;10401916;28;20256;-72
2021/05/19 18:51:27;;;;;;;2.07;1.83;;;16.20;32.80;;;;;;10388471;28;20758;-72
2021/05/19 18:56:31;;;;;;;3.10;1.73;;;16.10;32.70;;;;;;10390495;28;20233;-71
2021/05/19 19:01:35;;;;;;;1.80;1.70;;;16.00;33.00;;;;;;10386607;28;20272;-71
2021/05/19 19:06:38;;;;;;;2.97;1.57;;;15.90;32.90;;;;;;10397274;28;20237;-71
2021/05/19 19:11:41;;;;;;;3.17;1.47;;;15.80;32.80;;;;;;10386542;28;20257;-72
2021/05/19 19:16:45;;;;;;;1.70;1.60;;;15.70;32.70;;;;;;10391300;28;20280;-72
2021/05/19 19:21:48;;;;;;;1.97;1.50;;;15.70;32.70;;;;;;10372138;28;20222;-72
2021/05/19 19:26:51;;;;;;;1.80;1.70;;;15.70;32.70;;;;;;10379032;28;20218;-72
2021/05/19 19:31:55;;;;;;;2.97;2.03;;;15.70;32.70;;;;;;10368551;28;20234;-72
2021/05/19 19:36:58;;;;;;;1.60;1.50;;;15.60;32.90;;;;;;10387602;28;20325;-72
2021/05/19 19:42:04;;;;;;;1.30;1.20;;;15.50;33.10;;;;;;10380605;28;20222;-72
2021/05/19 19:47:07;;;;;;;2.57;1.60;;;15.50;33.20;;;;;;10376069;28;20309;-73
2021/05/19 19:52:10;;;;;;;2.47;1.40;;;15.40;33.40;;;;;;10371985;28;20248;-72
2021/05/19 19:57:14;;;;;;;1.10;1.00;;;15.30;33.70;;;;;;10393143;28;20222;-73
2021/05/19 20:02:20;;;;;;;1.70;1.23;;;15.20;33.60;;;;;;10395434;28;20244;-73
2021/05/19 20:07:23;;;;;;;1.43;1.33;;;15.20;33.90;;;;;;10387792;28;20229;-72
2021/05/19 20:12:28;;;;;;;1.97;1.30;;;15.20;33.70;;;;;;10366054;28;20781;-72
2021/05/19 20:17:33;;;;;;;1.20;1.10;;;15.20;33.70;;;;;;10373898;28;20234;-71
2021/05/19 20:22:36;;;;;;;2.03;1.00;;;15.20;33.70;;;;;;10356505;28;20281;-71
2021/05/19 20:27:39;;;;;;;1.63;1.30;;;15.20;33.70;;;;;;10387630;28;20599;-71
2021/05/19 20:32:46;;;;;;;1.40;1.00;;;15.10;33.60;;;;;;10393990;28;20213;-71
2021/05/19 20:37:49;;;;;;;1.47;0.80;;;15.00;33.70;;;;;;10387667;28;20257;-71
2021/05/19 20:42:52;;;;;;;1.37;1.27;;;14.90;33.70;;;;;;10390484;28;20221;-72
2021/05/19 20:47:56;;;;;;;1.57;1.30;;;14.80;33.60;;;;;;10392634;28;20230;-71
2021/05/19 20:52:59;;;;;;;1.70;1.33;;;14.70;33.90;;;;;;10391703;28;20270;-71
2021/05/19 20:58:07;;;;;;;1.60;1.50;;;14.50;34.00;;;;;;10392959;28;20234;-71
2021/05/19 21:03:11;;;;;;;1.20;1.10;;;14.40;34.10;;;;;;10390896;28;20590;-71
2021/05/19 21:08:14;;;;;;;1.47;1.20;;;14.40;34.30;;;;;;10391485;28;20314;-71
2021/05/19 21:13:21;;;;;;;1.03;0.93;;;14.30;34.40;;;;;;10400780;28;20229;-72
2021/05/19 21:18:25;;;;;;;0.93;0.80;;;14.30;34.70;;;;;;10399492;28;20233;-71
2021/05/19 21:23:28;;;;;;;1.30;1.20;;;14.30;34.90;;;;;;10394980;28;20260;-71
2021/05/19 21:28:30;;;;;;;1.83;1.20;;;14.30;34.50;;;;;;10382534;28;20233;-71
2021/05/19 21:33:34;;;;;;;1.80;0.90;;;14.20;34.60;;;;;;10393754;28;20233;-71
2021/05/19 21:38:37;;;;;;;1.37;1.10;;;14.20;35.00;;;;;;10395041;28;20873;-71
2021/05/19 21:43:41;;;;;;;1.20;1.20;;;14.10;34.80;;;;;;10396438;28;20274;-71
2021/05/19 21:48:44;;;;;;;1.50;1.23;;;14.00;35.10;;;;;;10388218;28;20238;-72
2021/05/19 21:53:47;;;;;;;1.30;1.20;;;13.80;35.40;;;;;;10388254;28;20279;-71
2021/05/19 21:58:50;;;;;;;1.27;1.17;;;13.70;36.60;;;;;;10388769;28;20265;-71
2021/05/19 22:03:53;;;;;;;1.43;1.10;;;13.70;35.80;;;;;;10393118;28;20265;-72
2021/05/19 22:08:56;;;;;;;1.17;1.00;;;13.60;36.10;;;;;;10392152;28;20233;-71
2021/05/19 22:13:59;;;;;;;0.93;0.93;;;13.50;36.20;;;;;;10387442;28;20257;-71
2021/05/19 22:19:10;;;;;;;3.57;1.20;;;13.50;36.60;;;;;;10397116;28;20280;-71
2021/05/19 22:29:34;;;;;;;1.33;1.13;;;13.60;37.00;;;;;;10379096;28;20633;-71
2021/05/19 22:34:37;;;;;;;1.27;1.20;;;13.80;36.50;;;;;;10392564;28;20572;-71
2021/05/19 22:39:40;;;;;;;1.00;0.90;;;13.80;36.70;;;;;;10387114;28;20234;-71
2021/05/19 22:44:43;;;;;;;1.00;0.80;;;13.90;36.20;;;;;;10384356;28;20244;-71
2021/05/19 22:49:46;;;;;;;0.80;0.80;;;14.00;35.90;;;;;;10392453;28;20309;-71
2021/05/19 22:54:49;;;;;;;1.80;0.90;;;14.00;35.60;;;;;;10385926;28;20321;-71
2021/05/19 22:59:52;;;;;;;1.80;0.80;;;14.00;35.40;;;;;;10395962;28;20735;-71
2021/05/19 23:04:56;;;;;;;0.80;0.80;;;13.90;35.50;;;;;;10394497;28;20980;-71
2021/05/19 23:09:58;;;;;;;1.97;0.97;;;13.90;35.70;;;;;;10385065;28;20737;-71
2021/05/19 23:15:01;;;;;;;0.90;0.90;;;13.90;35.70;;;;;;10367872;28;20257;-71
2021/05/19 23:20:07;;;;;;;0.73;0.73;;;13.90;35.60;;;;;;10386701;28;20269;-71
2021/05/19 23:25:10;;;;;;;1.13;0.70;;;13.80;36.00;;;;;;10387778;28;20285;-71
2021/05/19 23:30:14;;;;;;;1.60;0.80;;;13.70;36.10;;;;;;10392586;28;20233;-72
2021/05/19 23:35:18;;;;;;;1.10;1.10;;;13.70;36.20;;;;;;10407416;28;20284;-72
2021/05/19 23:40:21;;;;;;;1.00;0.90;;;13.70;36.70;;;;;;10407358;28;20347;-72
2021/05/19 23:45:24;;;;;;;1.33;1.13;;;13.60;36.40;;;;;;10407247;28;20283;-72
2021/05/19 23:50:28;;;;;;;1.77;1.10;;;13.60;36.60;;;;;;10406965;28;20275;-72
2021/05/19 23:55:31;;;;;;;1.20;1.20;;;13.60;37.00;;;;;;10407100;28;20233;-71
